sensor_id;sensor_type;location;lat;lon;timestamp;P1;P2;P0
44933;PMS3003;30667;43.614;1.442;2022-10-31T00:00:40;14.75;14.00;9.00
44933;PMS3003;30667;43.614;1.442;2022-10-31T00:03:07;17.80;17.00;10.40
44933;PMS3003;30667;43.614;1.442;2022-10-31T00:05:33;17.75;17.00;10.00
44933;PMS3003;30667;43.614;1.442;2022-10-31T00:07:58;15.75;15.00;9.25
44933;PMS3003;30667;43.614;1.442;2022-10-31T00:10:23;18.75;16.75;11.25
44933;PMS3003;30667;43.614;1.442;2022-10-31T00:12:49;15.25;14.25;8.25
44933;PMS3003;30667;43.614;1.442;2022-10-31T00:15:14;18.75;15.75;9.00
44933;PMS3003;30667;43.614;1.442;2022-10-31T00:17:40;16.75;14.75;8.00
44933;PMS3003;30667;43.614;1.442;2022-10-31T00:20:05;20.00;14.25;8.50
44933;PMS3003;30667;43.614;1.442;2022-10-31T00:22:31;14.40;13.80;8.60
44933;PMS3003;30667;43.614;1.442;2022-10-31T00:24:56;17.50;16.25;9.00
44933;PMS3003;30667;43.614;1.442;2022-10-31T00:27:22;16.50;14.25;8.25
44933;PMS3003;30667;43.614;1.442;2022-10-31T00:29:47;15.50;13.50;8.00
44933;PMS3003;30667;43.614;1.442;2022-10-31T00:32:13;17.75;15.25;8.25
44933;PMS3003;30667;43.614;1.442;2022-10-31T00:34:38;16.00;15.00;8.00
44933;PMS3003;30667;43.614;1.442;2022-10-31T00:37:03;18.50;15.00;8.25
44933;PMS3003;30667;43.614;1.442;2022-10-31T00:39:29;17.75;15.50;9.00
44933;PMS3003;30667;43.614;1.442;2022-10-31T00:41:54;16.00;15.75;9.00
44933;PMS3003;30667;43.614;1.442;2022-10-31T00:44:19;17.00;16.00;8.75
44933;PMS3003;30667;43.614;1.442;2022-10-31T00:46:45;15.00;14.00;8.00
44933;PMS3003;30667;43.614;1.442;2022-10-31T00:49:10;13.50;13.50;8.00
44933;PMS3003;30667;43.614;1.442;2022-10-31T00:51:37;15.20;13.20;7.20
44933;PMS3003;30667;43.614;1.442;2022-10-31T00:54:02;16.75;14.25;8.25
44933;PMS3003;30667;43.614;1.442;2022-10-31T00:56:28;14.25;13.00;7.00
44933;PMS3003;30667;43.614;1.442;2022-10-31T00:58:53;14.00;13.00;7.50
44933;PMS3003;30667;43.614;1.442;2022-10-31T01:01:19;16.00;13.25;6.25
44933;PMS3003;30667;43.614;1.442;2022-10-31T01:03:44;19.00;15.75;8.75
44933;PMS3003;30667;43.614;1.442;2022-10-31T01:06:10;14.00;14.00;8.00
44933;PMS3003;30667;43.614;1.442;2022-10-31T01:08:37;16.60;15.40;9.00
44933;PMS3003;30667;43.614;1.442;2022-10-31T01:11:07;14.80;13.80;8.40
44933;PMS3003;30667;43.614;1.442;2022-10-31T01:13:33;11.20;11.20;7.00
44933;PMS3003;30667;43.614;1.442;2022-10-31T01:15:59;16.60;14.80;8.60
44933;PMS3003;30667;43.614;1.442;2022-10-31T01:18:26;18.40;17.20;10.00
44933;PMS3003;30667;43.614;1.442;2022-10-31T01:20:58;16.20;15.80;10.00
44933;PMS3003;30667;43.614;1.442;2022-10-31T01:23:32;17.80;16.80;10.00
44933;PMS3003;30667;43.614;1.442;2022-10-31T01:26:09;16.40;15.00;9.00
44933;PMS3003;30667;43.614;1.442;2022-10-31T01:28:37;21.00;18.00;10.60
44933;PMS3003;30667;43.614;1.442;2022-10-31T01:31:08;16.80;15.20;9.00
44933;PMS3003;30667;43.614;1.442;2022-10-31T01:33:34;19.40;17.40;11.00
44933;PMS3003;30667;43.614;1.442;2022-10-31T01:36:00;18.20;14.20;9.60
44933;PMS3003;30667;43.614;1.442;2022-10-31T01:38:27;19.80;17.40;10.00
44933;PMS3003;30667;43.614;1.442;2022-10-31T01:40:52;16.00;16.00;9.75
44933;PMS3003;30667;43.614;1.442;2022-10-31T01:43:18;19.00;17.00;10.00
44933;PMS3003;30667;43.614;1.442;2022-10-31T01:45:46;19.00;17.60;11.00
44933;PMS3003;30667;43.614;1.442;2022-10-31T01:48:19;17.80;17.00;11.00
44933;PMS3003;30667;43.614;1.442;2022-10-31T01:50:49;17.60;16.00;9.40
44933;PMS3003;30667;43.614;1.442;2022-10-31T01:53:17;18.40;17.60;9.60
44933;PMS3003;30667;43.614;1.442;2022-10-31T01:55:44;20.00;17.40;10.00
44933;PMS3003;30667;43.614;1.442;2022-10-31T01:58:15;19.80;17.00;9.20
44933;PMS3003;30667;43.614;1.442;2022-10-31T02:00:45;16.80;16.80;9.80
44933;PMS3003;30667;43.614;1.442;2022-10-31T02:03:13;17.80;17.00;10.00
44933;PMS3003;30667;43.614;1.442;2022-10-31T02:05:39;17.60;16.40;9.20
44933;PMS3003;30667;43.614;1.442;2022-10-31T02:08:15;17.40;15.80;9.00
44933;PMS3003;30667;43.614;1.442;2022-10-31T02:10:45;18.60;17.60;11.20
44933;PMS3003;30667;43.614;1.442;2022-10-31T02:13:10;19.25;18.00;10.00
44933;PMS3003;30667;43.614;1.442;2022-10-31T02:15:38;18.60;16.80;10.00
44933;PMS3003;30667;43.614;1.442;2022-10-31T02:18:05;19.40;16.40;9.20
44933;PMS3003;30667;43.614;1.442;2022-10-31T02:20:34;19.80;18.20;10.80
44933;PMS3003;30667;43.614;1.442;2022-10-31T02:39:22;20.40;18.60;11.80
44933;PMS3003;30667;43.614;1.442;2022-10-31T02:46:50;18.60;16.40;10.60
44933;PMS3003;30667;43.614;1.442;2022-10-31T02:49:23;18.20;16.00;10.00
44933;PMS3003;30667;43.614;1.442;2022-10-31T02:52:01;17.60;17.40;10.60
44933;PMS3003;30667;43.614;1.442;2022-10-31T02:54:27;18.50;17.25;10.00
44933;PMS3003;30667;43.614;1.442;2022-10-31T02:57:00;17.40;16.40;9.20
44933;PMS3003;30667;43.614;1.442;2022-10-31T02:59:32;19.80;18.00;11.40
44933;PMS3003;30667;43.614;1.442;2022-10-31T03:02:10;19.40;18.00;10.00
44933;PMS3003;30667;43.614;1.442;2022-10-31T03:10:02;17.40;17.00;9.40
44933;PMS3003;30667;43.614;1.442;2022-10-31T03:15:27;18.40;16.60;11.20
44933;PMS3003;30667;43.614;1.442;2022-10-31T03:20:39;18.60;17.40;11.20
44933;PMS3003;30667;43.614;1.442;2022-10-31T03:23:08;18.40;15.80;10.00
44933;PMS3003;30667;43.614;1.442;2022-10-31T03:25:38;17.60;16.40;10.40
44933;PMS3003;30667;43.614;1.442;2022-10-31T03:28:05;19.40;17.00;11.20
44933;PMS3003;30667;43.614;1.442;2022-10-31T03:30:33;19.20;17.60;11.80
44933;PMS3003;30667;43.614;1.442;2022-10-31T03:33:03;16.80;16.60;11.60
44933;PMS3003;30667;43.614;1.442;2022-10-31T03:35:33;20.20;17.40;11.60
44933;PMS3003;30667;43.614;1.442;2022-10-31T03:38:01;17.80;17.00;10.00
44933;PMS3003;30667;43.614;1.442;2022-10-31T03:40:28;18.40;17.00;10.20
44933;PMS3003;30667;43.614;1.442;2022-10-31T03:42:57;22.60;18.20;10.00
44933;PMS3003;30667;43.614;1.442;2022-10-31T03:45:29;18.80;17.00;12.20
44933;PMS3003;30667;43.614;1.442;2022-10-31T03:47:56;18.60;17.20;10.20
44933;PMS3003;30667;43.614;1.442;2022-10-31T03:50:24;25.40;18.60;11.60
44933;PMS3003;30667;43.614;1.442;2022-10-31T03:53:08;18.40;17.40;10.40
44933;PMS3003;30667;43.614;1.442;2022-10-31T03:56:22;17.60;16.40;9.00
44933;PMS3003;30667;43.614;1.442;2022-10-31T03:58:39;18.80;17.60;10.60
44933;PMS3003;30667;43.614;1.442;2022-10-31T04:01:30;17.80;17.20;11.80
44933;PMS3003;30667;43.614;1.442;2022-10-31T04:03:59;18.20;17.00;11.60
44933;PMS3003;30667;43.614;1.442;2022-10-31T04:06:27;19.80;17.60;11.00
44933;PMS3003;30667;43.614;1.442;2022-10-31T04:08:54;20.00;18.00;10.00
44933;PMS3003;30667;43.614;1.442;2022-10-31T04:11:25;17.80;17.00;11.40
44933;PMS3003;30667;43.614;1.442;2022-10-31T04:13:55;18.00;16.00;8.80
44933;PMS3003;30667;43.614;1.442;2022-10-31T04:16:23;20.80;17.40;11.00
44933;PMS3003;30667;43.614;1.442;2022-10-31T04:18:50;18.80;17.20;10.80
44933;PMS3003;30667;43.614;1.442;2022-10-31T04:21:15;19.25;18.25;11.50
44933;PMS3003;30667;43.614;1.442;2022-10-31T04:23:41;18.60;16.40;10.60
44933;PMS3003;30667;43.614;1.442;2022-10-31T04:26:07;19.50;17.25;12.00
44933;PMS3003;30667;43.614;1.442;2022-10-31T04:28:35;18.20;16.00;10.00
44933;PMS3003;30667;43.614;1.442;2022-10-31T04:31:00;20.00;18.50;11.75
44933;PMS3003;30667;43.614;1.442;2022-10-31T04:33:26;18.50;17.25;11.25
44933;PMS3003;30667;43.614;1.442;2022-10-31T04:35:51;19.75;17.75;11.00
44933;PMS3003;30667;43.614;1.442;2022-10-31T04:38:16;18.25;16.00;10.75
44933;PMS3003;30667;43.614;1.442;2022-10-31T04:40:42;19.00;16.75;11.00
44933;PMS3003;30667;43.614;1.442;2022-10-31T04:43:07;20.00;18.00;12.50
44933;PMS3003;30667;43.614;1.442;2022-10-31T04:45:33;20.75;17.00;11.00
44933;PMS3003;30667;43.614;1.442;2022-10-31T04:47:58;19.00;18.00;12.00
44933;PMS3003;30667;43.614;1.442;2022-10-31T04:50:23;18.75;16.25;10.00
44933;PMS3003;30667;43.614;1.442;2022-10-31T04:52:49;16.75;16.00;10.50
44933;PMS3003;30667;43.614;1.442;2022-10-31T04:55:14;18.00;18.00;12.00
44933;PMS3003;30667;43.614;1.442;2022-10-31T04:57:49;16.60;16.00;10.60
44933;PMS3003;30667;43.614;1.442;2022-10-31T05:00:19;20.40;18.00;12.00
44933;PMS3003;30667;43.614;1.442;2022-10-31T05:02:46;19.40;18.40;11.20
44933;PMS3003;30667;43.614;1.442;2022-10-31T05:05:16;18.80;16.60;10.60
44933;PMS3003;30667;43.614;1.442;2022-10-31T05:07:44;21.80;20.80;11.80
44933;PMS3003;30667;43.614;1.442;2022-10-31T05:10:11;21.80;18.40;12.00
44933;PMS3003;30667;43.614;1.442;2022-10-31T05:12:44;18.40;16.40;9.20
44933;PMS3003;30667;43.614;1.442;2022-10-31T05:15:14;19.60;18.80;13.00
44933;PMS3003;30667;43.614;1.442;2022-10-31T05:17:40;21.60;20.20;12.80
44933;PMS3003;30667;43.614;1.442;2022-10-31T05:20:05;19.25;17.50;12.00
44933;PMS3003;30667;43.614;1.442;2022-10-31T05:22:31;21.00;18.75;11.00
44933;PMS3003;30667;43.614;1.442;2022-10-31T05:24:56;17.25;15.75;11.75
44933;PMS3003;30667;43.614;1.442;2022-10-31T05:27:22;20.50;16.50;11.50
44933;PMS3003;30667;43.614;1.442;2022-10-31T05:29:47;21.25;18.50;11.00
44933;PMS3003;30667;43.614;1.442;2022-10-31T05:32:12;17.25;16.00;9.75
44933;PMS3003;30667;43.614;1.442;2022-10-31T05:34:38;17.00;16.50;11.00
44933;PMS3003;30667;43.614;1.442;2022-10-31T05:37:03;18.00;17.50;12.00
44933;PMS3003;30667;43.614;1.442;2022-10-31T05:39:28;21.25;19.75;12.50
44933;PMS3003;30667;43.614;1.442;2022-10-31T05:41:54;19.50;17.25;11.75
44933;PMS3003;30667;43.614;1.442;2022-10-31T05:44:19;19.00;19.00;12.00
44933;PMS3003;30667;43.614;1.442;2022-10-31T05:46:45;17.75;16.50;11.50
44933;PMS3003;30667;43.614;1.442;2022-10-31T05:49:11;18.60;17.20;11.00
44933;PMS3003;30667;43.614;1.442;2022-10-31T05:51:37;16.75;16.25;11.00
44933;PMS3003;30667;43.614;1.442;2022-10-31T05:54:02;18.75;18.00;12.00
44933;PMS3003;30667;43.614;1.442;2022-10-31T05:56:28;19.00;18.50;10.75
44933;PMS3003;30667;43.614;1.442;2022-10-31T05:58:53;18.60;16.20;11.00
44933;PMS3003;30667;43.614;1.442;2022-10-31T06:01:19;17.25;15.25;11.00
44933;PMS3003;30667;43.614;1.442;2022-10-31T06:03:44;17.25;15.75;11.00
44933;PMS3003;30667;43.614;1.442;2022-10-31T06:06:09;18.25;17.50;11.75
44933;PMS3003;30667;43.614;1.442;2022-10-31T06:08:35;16.00;15.25;10.75
44933;PMS3003;30667;43.614;1.442;2022-10-31T06:11:01;20.00;18.60;10.80
44933;PMS3003;30667;43.614;1.442;2022-10-31T06:13:26;19.75;15.25;10.25
44933;PMS3003;30667;43.614;1.442;2022-10-31T06:15:51;17.00;15.25;10.50
44933;PMS3003;30667;43.614;1.442;2022-10-31T06:18:17;19.50;18.00;11.25
44933;PMS3003;30667;43.614;1.442;2022-10-31T06:20:42;22.00;19.50;11.00
44933;PMS3003;30667;43.614;1.442;2022-10-31T06:23:08;17.75;16.00;10.75
44933;PMS3003;30667;43.614;1.442;2022-10-31T06:25:33;20.75;19.50;12.00
44933;PMS3003;30667;43.614;1.442;2022-10-31T06:27:58;20.75;18.00;11.00
44933;PMS3003;30667;43.614;1.442;2022-10-31T06:30:24;17.00;15.50;10.00
44933;PMS3003;30667;43.614;1.442;2022-10-31T06:32:50;18.00;16.00;9.80
44933;PMS3003;30667;43.614;1.442;2022-10-31T06:35:15;18.50;16.25;11.00
44933;PMS3003;30667;43.614;1.442;2022-10-31T06:37:41;19.50;18.75;11.00
44933;PMS3003;30667;43.614;1.442;2022-10-31T06:40:06;18.00;18.00;11.00
44933;PMS3003;30667;43.614;1.442;2022-10-31T06:42:32;17.00;15.60;9.40
44933;PMS3003;30667;43.614;1.442;2022-10-31T06:44:57;22.50;18.75;11.00
44933;PMS3003;30667;43.614;1.442;2022-10-31T06:47:23;18.50;16.75;10.50
44933;PMS3003;30667;43.614;1.442;2022-10-31T06:49:48;22.25;17.25;10.00
44933;PMS3003;30667;43.614;1.442;2022-10-31T06:52:14;19.25;18.00;12.50
44933;PMS3003;30667;43.614;1.442;2022-10-31T06:54:39;20.75;16.50;11.00
44933;PMS3003;30667;43.614;1.442;2022-10-31T06:57:05;23.25;19.00;11.25
44933;PMS3003;30667;43.614;1.442;2022-10-31T06:59:30;16.25;15.75;10.25
44933;PMS3003;30667;43.614;1.442;2022-10-31T07:01:57;19.50;19.00;12.00
44933;PMS3003;30667;43.614;1.442;2022-10-31T07:04:22;18.20;17.60;12.20
44933;PMS3003;30667;43.614;1.442;2022-10-31T07:06:50;21.20;18.00;11.20
44933;PMS3003;30667;43.614;1.442;2022-10-31T07:09:16;18.80;17.80;11.00
44933;PMS3003;30667;43.614;1.442;2022-10-31T07:11:42;19.50;17.50;11.00
44933;PMS3003;30667;43.614;1.442;2022-10-31T07:14:07;21.50;19.00;12.50
44933;PMS3003;30667;43.614;1.442;2022-10-31T07:16:32;20.25;19.00;11.00
44933;PMS3003;30667;43.614;1.442;2022-10-31T07:18:58;21.25;19.50;12.00
44933;PMS3003;30667;43.614;1.442;2022-10-31T07:21:23;19.00;18.50;11.00
44933;PMS3003;30667;43.614;1.442;2022-10-31T07:23:48;22.00;19.25;11.25
44933;PMS3003;30667;43.614;1.442;2022-10-31T07:26:14;21.50;19.25;13.75
44933;PMS3003;30667;43.614;1.442;2022-10-31T07:28:39;21.25;18.50;13.00
44933;PMS3003;30667;43.614;1.442;2022-10-31T07:31:05;23.50;20.25;14.25
44933;PMS3003;30667;43.614;1.442;2022-10-31T07:33:30;22.00;21.25;14.00
44933;PMS3003;30667;43.614;1.442;2022-10-31T07:35:56;20.50;19.75;13.00
44933;PMS3003;30667;43.614;1.442;2022-10-31T07:38:21;22.75;20.00;13.50
44933;PMS3003;30667;43.614;1.442;2022-10-31T07:40:49;23.00;20.50;14.00
44933;PMS3003;30667;43.614;1.442;2022-10-31T07:43:17;20.60;19.60;12.60
44933;PMS3003;30667;43.614;1.442;2022-10-31T07:45:43;21.00;20.40;13.00
44933;PMS3003;30667;43.614;1.442;2022-10-31T07:48:08;20.00;19.00;12.25
44933;PMS3003;30667;43.614;1.442;2022-10-31T07:50:34;23.25;19.50;12.00
44933;PMS3003;30667;43.614;1.442;2022-10-31T07:55:35;18.40;17.60;12.20
44933;PMS3003;30667;43.614;1.442;2022-10-31T07:58:02;20.40;19.00;12.00
44933;PMS3003;30667;43.614;1.442;2022-10-31T08:00:33;23.40;22.60;14.00
44933;PMS3003;30667;43.614;1.442;2022-10-31T08:03:10;20.00;18.20;12.40
44933;PMS3003;30667;43.614;1.442;2022-10-31T08:05:37;21.00;20.60;13.00
44933;PMS3003;30667;43.614;1.442;2022-10-31T08:08:03;20.80;20.00;13.00
44933;PMS3003;30667;43.614;1.442;2022-10-31T08:10:30;23.80;20.60;11.60
44933;PMS3003;30667;43.614;1.442;2022-10-31T08:13:04;19.00;16.60;11.40
44933;PMS3003;30667;43.614;1.442;2022-10-31T08:15:32;17.00;15.60;9.80
44933;PMS3003;30667;43.614;1.442;2022-10-31T08:18:01;16.40;15.60;10.80
44933;PMS3003;30667;43.614;1.442;2022-10-31T08:20:27;17.00;15.25;10.00
44933;PMS3003;30667;43.614;1.442;2022-10-31T08:22:53;17.00;15.25;11.00
44933;PMS3003;30667;43.614;1.442;2022-10-31T08:25:22;17.40;15.60;8.20
44933;PMS3003;30667;43.614;1.442;2022-10-31T08:27:52;16.60;14.40;10.00
44933;PMS3003;30667;43.614;1.442;2022-10-31T08:30:22;14.00;13.40;8.00
44933;PMS3003;30667;43.614;1.442;2022-10-31T08:35:35;13.80;13.00;8.00
44933;PMS3003;30667;43.614;1.442;2022-10-31T08:38:00;15.75;15.75;10.25
44933;PMS3003;30667;43.614;1.442;2022-10-31T08:40:27;16.40;15.20;7.00
44933;PMS3003;30667;43.614;1.442;2022-10-31T08:43:00;18.80;15.60;8.40
44933;PMS3003;30667;43.614;1.442;2022-10-31T08:45:27;15.00;14.00;7.80
44933;PMS3003;30667;43.614;1.442;2022-10-31T08:47:56;13.20;12.60;7.20
44933;PMS3003;30667;43.614;1.442;2022-10-31T08:50:23;16.00;13.40;8.60
44933;PMS3003;30667;43.614;1.442;2022-10-31T08:52:48;13.25;11.75;7.25
44933;PMS3003;30667;43.614;1.442;2022-10-31T08:55:14;13.25;12.50;6.75
44933;PMS3003;30667;43.614;1.442;2022-10-31T08:57:39;14.50;13.50;7.50
44933;PMS3003;30667;43.614;1.442;2022-10-31T09:00:05;15.25;14.00;8.00
44933;PMS3003;30667;43.614;1.442;2022-10-31T09:02:31;14.60;13.60;7.40
44933;PMS3003;30667;43.614;1.442;2022-10-31T09:04:56;13.25;12.00;8.00
44933;PMS3003;30667;43.614;1.442;2022-10-31T09:07:22;13.00;13.00;7.00
44933;PMS3003;30667;43.614;1.442;2022-10-31T09:09:47;14.50;14.00;8.25
44933;PMS3003;30667;43.614;1.442;2022-10-31T09:12:12;14.00;13.00;7.25
44933;PMS3003;30667;43.614;1.442;2022-10-31T09:14:38;15.00;13.75;7.00
44933;PMS3003;30667;43.614;1.442;2022-10-31T09:17:03;16.00;14.00;8.25
44933;PMS3003;30667;43.614;1.442;2022-10-31T09:19:28;14.00;13.75;7.00
44933;PMS3003;30667;43.614;1.442;2022-10-31T09:21:54;12.00;11.50;7.00
44933;PMS3003;30667;43.614;1.442;2022-10-31T09:24:20;13.25;13.25;7.00
44933;PMS3003;30667;43.614;1.442;2022-10-31T09:26:45;15.25;13.75;7.75
44933;PMS3003;30667;43.614;1.442;2022-10-31T09:29:11;14.25;14.00;7.25
44933;PMS3003;30667;43.614;1.442;2022-10-31T09:31:36;14.25;14.00;7.00
44933;PMS3003;30667;43.614;1.442;2022-10-31T09:34:01;16.00;14.75;8.00
44933;PMS3003;30667;43.614;1.442;2022-10-31T09:36:27;12.50;12.00;6.25
44933;PMS3003;30667;43.614;1.442;2022-10-31T09:38:52;14.25;13.25;6.75
44933;PMS3003;30667;43.614;1.442;2022-10-31T09:51:58;15.00;13.00;7.00
44933;PMS3003;30667;43.614;1.442;2022-10-31T09:57:03;16.40;14.40;7.80
44933;PMS3003;30667;43.614;1.442;2022-10-31T09:59:31;14.40;12.80;7.00
44933;PMS3003;30667;43.614;1.442;2022-10-31T10:02:10;13.80;12.60;7.00
44933;PMS3003;30667;43.614;1.442;2022-10-31T10:04:56;14.60;13.60;7.40
44933;PMS3003;30667;43.614;1.442;2022-10-31T10:13:11;15.00;13.20;7.00
44933;PMS3003;30667;43.614;1.442;2022-10-31T10:16:00;13.80;13.80;6.40
44933;PMS3003;30667;43.614;1.442;2022-10-31T10:18:38;16.80;14.00;7.00
44933;PMS3003;30667;43.614;1.442;2022-10-31T10:30:03;14.20;12.00;8.00
44933;PMS3003;30667;43.614;1.442;2022-10-31T10:33:21;12.00;12.00;7.20
44933;PMS3003;30667;43.614;1.442;2022-10-31T10:38:26;14.00;14.00;7.60
44933;PMS3003;30667;43.614;1.442;2022-10-31T10:40:56;13.20;13.00;7.00
44933;PMS3003;30667;43.614;1.442;2022-10-31T10:43:31;13.80;12.20;7.00
44933;PMS3003;30667;43.614;1.442;2022-10-31T10:49:06;13.20;12.20;7.00
44933;PMS3003;30667;43.614;1.442;2022-10-31T10:51:44;12.20;11.20;6.20
44933;PMS3003;30667;43.614;1.442;2022-10-31T10:56:58;16.60;14.40;7.80
44933;PMS3003;30667;43.614;1.442;2022-10-31T10:59:34;16.00;13.00;7.60
44933;PMS3003;30667;43.614;1.442;2022-10-31T11:02:00;13.20;11.40;6.40
44933;PMS3003;30667;43.614;1.442;2022-10-31T11:04:30;13.75;12.75;6.00
44933;PMS3003;30667;43.614;1.442;2022-10-31T11:07:03;14.20;13.20;7.20
44933;PMS3003;30667;43.614;1.442;2022-10-31T11:09:33;14.20;13.20;7.00
44933;PMS3003;30667;43.614;1.442;2022-10-31T11:12:00;13.60;11.80;6.40
44933;PMS3003;30667;43.614;1.442;2022-10-31T11:14:35;13.60;11.80;7.00
44933;PMS3003;30667;43.614;1.442;2022-10-31T11:17:09;12.60;11.80;6.20
44933;PMS3003;30667;43.614;1.442;2022-10-31T11:19:42;14.60;13.40;7.20
44933;PMS3003;30667;43.614;1.442;2022-10-31T11:22:12;12.75;10.25;6.25
44933;PMS3003;30667;43.614;1.442;2022-10-31T11:24:41;15.00;14.00;8.00
44933;PMS3003;30667;43.614;1.442;2022-10-31T11:29:45;14.60;14.00;7.00
44933;PMS3003;30667;43.614;1.442;2022-10-31T11:32:22;14.00;13.50;7.00
44933;PMS3003;30667;43.614;1.442;2022-10-31T11:34:57;15.40;13.20;7.40
44933;PMS3003;30667;43.614;1.442;2022-10-31T11:37:44;12.80;11.00;6.00
44933;PMS3003;30667;43.614;1.442;2022-10-31T11:40:29;9.60;9.60;6.40
44933;PMS3003;30667;43.614;1.442;2022-10-31T11:42:56;12.60;12.40;6.20
44933;PMS3003;30667;43.614;1.442;2022-10-31T11:47:59;12.60;12.20;7.00
44933;PMS3003;30667;43.614;1.442;2022-10-31T11:50:37;12.80;11.20;6.00
44933;PMS3003;30667;43.614;1.442;2022-10-31T11:53:47;15.20;13.00;6.80
44933;PMS3003;30667;43.614;1.442;2022-10-31T11:58:30;12.80;12.00;6.00
44933;PMS3003;30667;43.614;1.442;2022-10-31T12:00:56;16.00;14.50;9.00
44933;PMS3003;30667;43.614;1.442;2022-10-31T12:06:01;14.25;13.25;7.50
44933;PMS3003;30667;43.614;1.442;2022-10-31T12:08:36;15.00;12.60;7.00
44933;PMS3003;30667;43.614;1.442;2022-10-31T12:14:13;13.00;12.60;7.00
44933;PMS3003;30667;43.614;1.442;2022-10-31T12:19:27;13.80;10.40;6.00
44933;PMS3003;30667;43.614;1.442;2022-10-31T12:24:32;11.80;10.80;7.00
44933;PMS3003;30667;43.614;1.442;2022-10-31T12:40:53;14.80;12.00;6.40
44933;PMS3003;30667;43.614;1.442;2022-10-31T12:43:41;11.40;11.40;6.80
44933;PMS3003;30667;43.614;1.442;2022-10-31T12:49:34;10.80;10.40;6.00
44933;PMS3003;30667;43.614;1.442;2022-10-31T12:54:57;15.40;13.80;7.40
44933;PMS3003;30667;43.614;1.442;2022-10-31T12:57:33;12.60;10.20;7.00
44933;PMS3003;30667;43.614;1.442;2022-10-31T13:00:13;14.20;11.80;7.40
44933;PMS3003;30667;43.614;1.442;2022-10-31T13:08:15;14.00;11.40;6.40
44933;PMS3003;30667;43.614;1.442;2022-10-31T13:10:46;13.80;11.40;6.80
44933;PMS3003;30667;43.614;1.442;2022-10-31T13:13:18;13.40;11.40;7.00
44933;PMS3003;30667;43.614;1.442;2022-10-31T13:15:56;10.60;10.00;6.00
44933;PMS3003;30667;43.614;1.442;2022-10-31T13:20:58;12.60;11.40;6.80
44933;PMS3003;30667;43.614;1.442;2022-10-31T13:23:31;13.20;10.60;6.20
44933;PMS3003;30667;43.614;1.442;2022-10-31T13:25:59;11.60;10.60;6.60
44933;PMS3003;30667;43.614;1.442;2022-10-31T13:28:34;9.20;9.00;6.00
44933;PMS3003;30667;43.614;1.442;2022-10-31T13:31:07;16.80;14.00;7.00
44933;PMS3003;30667;43.614;1.442;2022-10-31T13:33:43;12.00;10.80;6.20
44933;PMS3003;30667;43.614;1.442;2022-10-31T13:36:22;12.80;10.60;6.20
44933;PMS3003;30667;43.614;1.442;2022-10-31T13:38:59;11.00;11.00;6.00
44933;PMS3003;30667;43.614;1.442;2022-10-31T13:44:00;14.40;11.00;7.00
44933;PMS3003;30667;43.614;1.442;2022-10-31T13:46:37;11.80;11.80;6.40
44933;PMS3003;30667;43.614;1.442;2022-10-31T13:54:37;11.60;9.80;6.60
44933;PMS3003;30667;43.614;1.442;2022-10-31T13:57:26;11.40;10.00;6.60
44933;PMS3003;30667;43.614;1.442;2022-10-31T14:00:03;12.00;12.00;7.00
44933;PMS3003;30667;43.614;1.442;2022-10-31T14:02:49;13.80;11.60;6.40
44933;PMS3003;30667;43.614;1.442;2022-10-31T14:05:35;12.00;12.00;6.80
44933;PMS3003;30667;43.614;1.442;2022-10-31T14:08:02;14.00;11.00;6.00
44933;PMS3003;30667;43.614;1.442;2022-10-31T14:15:32;14.60;14.00;7.80
44933;PMS3003;30667;43.614;1.442;2022-10-31T14:18:05;10.40;10.40;6.60
44933;PMS3003;30667;43.614;1.442;2022-10-31T14:20:34;12.40;10.80;6.00
44933;PMS3003;30667;43.614;1.442;2022-10-31T14:23:50;13.60;12.60;7.40
44933;PMS3003;30667;43.614;1.442;2022-10-31T14:31:41;13.00;11.40;6.40
44933;PMS3003;30667;43.614;1.442;2022-10-31T14:42:25;12.00;11.20;6.40
44933;PMS3003;30667;43.614;1.442;2022-10-31T14:47:39;14.75;13.50;6.50
44933;PMS3003;30667;43.614;1.442;2022-10-31T14:53:00;13.00;13.00;7.60
44933;PMS3003;30667;43.614;1.442;2022-10-31T14:55:29;11.40;10.20;6.00
44933;PMS3003;30667;43.614;1.442;2022-10-31T14:57:59;13.75;12.25;7.00
44933;PMS3003;30667;43.614;1.442;2022-10-31T15:00:28;11.60;11.00;7.00
44933;PMS3003;30667;43.614;1.442;2022-10-31T15:05:35;12.40;11.00;6.60
44933;PMS3003;30667;43.614;1.442;2022-10-31T15:08:13;16.20;13.60;7.40
44933;PMS3003;30667;43.614;1.442;2022-10-31T15:11:02;14.00;13.00;7.00
44933;PMS3003;30667;43.614;1.442;2022-10-31T15:16:37;12.80;12.20;7.00
44933;PMS3003;30667;43.614;1.442;2022-10-31T15:19:09;14.00;12.40;7.60
44933;PMS3003;30667;43.614;1.442;2022-10-31T15:21:41;15.00;13.40;7.60
44933;PMS3003;30667;43.614;1.442;2022-10-31T15:24:11;12.00;10.80;7.40
44933;PMS3003;30667;43.614;1.442;2022-10-31T15:26:44;17.20;14.80;8.00
44933;PMS3003;30667;43.614;1.442;2022-10-31T15:29:15;14.60;11.60;7.00
44933;PMS3003;30667;43.614;1.442;2022-10-31T15:36:51;15.00;13.20;7.00
44933;PMS3003;30667;43.614;1.442;2022-10-31T15:39:17;16.00;13.50;8.00
44933;PMS3003;30667;43.614;1.442;2022-10-31T15:41:54;14.20;12.80;8.00
44933;PMS3003;30667;43.614;1.442;2022-10-31T15:44:25;16.20;14.00;8.00
44933;PMS3003;30667;43.614;1.442;2022-10-31T15:49:29;15.20;13.80;7.40
44933;PMS3003;30667;43.614;1.442;2022-10-31T15:52:12;15.20;11.20;6.60
44933;PMS3003;30667;43.614;1.442;2022-10-31T15:54:52;15.00;14.20;8.00
44933;PMS3003;30667;43.614;1.442;2022-10-31T15:57:20;14.60;13.20;7.40
44933;PMS3003;30667;43.614;1.442;2022-10-31T15:59:48;16.00;15.00;9.00
44933;PMS3003;30667;43.614;1.442;2022-10-31T16:02:17;15.80;15.00;8.00
44933;PMS3003;30667;43.614;1.442;2022-10-31T16:04:52;14.40;11.80;7.20
44933;PMS3003;30667;43.614;1.442;2022-10-31T16:07:20;16.00;15.40;9.00
44933;PMS3003;30667;43.614;1.442;2022-10-31T16:12:28;11.80;11.00;7.40
44933;PMS3003;30667;43.614;1.442;2022-10-31T16:14:59;16.40;15.20;9.20
44933;PMS3003;30667;43.614;1.442;2022-10-31T16:17:26;17.00;14.80;9.00
44933;PMS3003;30667;43.614;1.442;2022-10-31T16:22:33;16.60;15.00;10.40
44933;PMS3003;30667;43.614;1.442;2022-10-31T16:25:02;15.00;14.60;9.00
44933;PMS3003;30667;43.614;1.442;2022-10-31T16:27:33;14.40;14.40;9.20
44933;PMS3003;30667;43.614;1.442;2022-10-31T16:30:01;15.60;14.40;9.40
44933;PMS3003;30667;43.614;1.442;2022-10-31T16:35:18;15.20;14.40;8.00
44933;PMS3003;30667;43.614;1.442;2022-10-31T16:37:44;15.80;15.40;9.00
44933;PMS3003;30667;43.614;1.442;2022-10-31T16:40:10;16.50;15.75;9.25
44933;PMS3003;30667;43.614;1.442;2022-10-31T16:42:42;17.60;16.00;9.60
44933;PMS3003;30667;43.614;1.442;2022-10-31T16:45:25;13.80;13.00;9.00
44933;PMS3003;30667;43.614;1.442;2022-10-31T16:47:53;15.00;13.40;8.20
44933;PMS3003;30667;43.614;1.442;2022-10-31T16:50:25;17.25;16.50;9.00
44933;PMS3003;30667;43.614;1.442;2022-10-31T16:52:51;15.60;14.40;9.00
44933;PMS3003;30667;43.614;1.442;2022-10-31T16:55:17;17.75;16.75;9.50
44933;PMS3003;30667;43.614;1.442;2022-10-31T16:57:54;16.80;16.00;9.80
44933;PMS3003;30667;43.614;1.442;2022-10-31T17:00:21;17.80;16.80;10.00